Flight Track Log - Related Links

Times and Time Zones

All times are in EDT time to prevent confusion due to time zone crossing. See the ASQ6073 flight status page for this flight to view local times or setup timezone preferences in your user account.

Time Position Orientation Groundspeed Altitude Reporting Facility
EDT Latitude Longitude Course Direction KTS MPH feet Rate Location/Type
Sun 09:23:44 AM 44.0603 -103.0700 296° West 159 183 3,900  Level Denver Center
Sun 09:24:51 AM 44.0861 -103.1453 296° West 198 228 6,500 2,341 Climbing Denver Center
Sun 09:25:47 AM 44.0578 -103.2017 235° Southwest 234 269 8,700 1,846 Climbing Denver Center
Sun 09:26:48 AM 43.9942 -103.2792 221° Southwest 274 315 10,100 619 Climbing Denver Center
Sun 09:27:53 AM 43.9239 -103.3583 219° Southwest 296 341 10,000 -50 Descending Denver Center
Sun 09:28:49 AM 43.8689 -103.4158 217° Southwest 297 342 10,000 50 Level Denver Center
Sun 09:29:54 AM 43.8453 -103.5356 255° West 293 337 10,100 843 Climbing Denver Center
Sun 09:30:50 AM 43.7833 -103.5783 207° Southwest 301 346 11,700 1,692 Climbing Denver Center
Sun 09:31:51 AM 43.6989 -103.5519 167° South 313 360 13,400 1,488 Climbing Denver Center
Sun 09:32:51 AM 43.6050 -103.5403 175° South 337 388 14,700 1,587 Climbing Denver Center
Sun 09:33:52 AM 43.4897 -103.5275 175° South 361 415 16,600 1,574 Climbing Denver Center
Sun 09:34:53 AM 43.3886 -103.5236 178° South 375 432 17,900 1,488 Climbing Denver Center
Sun 09:35:53 AM 43.2861 -103.5194 178° South 381 438 19,600 1,983 Climbing Denver Center
Sun 09:36:54 AM 43.1681 -103.5156 179° South 381 438 21,900 1,918 Climbing Denver Center
Sun 09:37:55 AM 43.0678 -103.5142 179° South 376 433 23,500 1,522 Climbing Denver Center
Sun 09:39:08 AM 42.9667 -103.5100 178° South 378 435 25,300 1,970 Climbing Denver Center
Sun 09:40:09 AM 42.8361 -103.5067 179° South 368 423 27,900 2,132 Climbing Denver Center
Sun 09:41:09 AM 42.7406 -103.5031 178° South 361 415 29,600 1,636 Climbing Denver Center
Sun 09:42:10 AM 42.6300 -103.5014 179° South 354 407 31,200 1,180 Climbing Denver Center
Sun 09:43:11 AM 42.5328 -103.4989 179° South 360 414 32,000 393 Climbing Denver Center
Sun 09:44:12 AM 42.4275 -103.4942 178° South 386 444 32,000  Level Denver Center
Sun 09:45:13 AM 42.3142 -103.4931 180° South 413 475 32,000  Level Denver Center
Sun 09:46:14 AM 42.1739 -103.4892 179° South 440 506 32,000  Level Denver Center
Sun 09:47:15 AM 42.0544 -103.4861 179° South 446 513 32,000  Level Denver Center
Sun 09:48:15 AM 41.9356 -103.4833 179° South 445 512 32,000  Level Denver Center
Sun 09:49:16 AM 41.7956 -103.4836 180° South 447 514 32,000  Level Denver Center
Sun 09:50:17 AM 41.6764 -103.4883 182° South 446 513 32,000  Level Denver Center
Sun 09:51:18 AM 41.5567 -103.4911 181° South 448 516 32,000  Level Denver Center
Sun 09:52:19 AM 41.4175 -103.4947 181° South 448 516 32,000  Level Denver Center
Sun 09:53:20 AM 41.2986 -103.4981 181° South 447 514 32,000  Level Denver Center
Sun 09:54:21 AM 41.1611 -103.5017 181° South 443 510 32,000  Level Denver Center
Sun 09:55:22 AM 41.0417 -103.5042 181° South 447 514 32,000 -295 Level Denver Center
Sun 09:56:23 AM 40.9147 -103.5236 187° South 439 505 31,400 -1,721 Descending Denver Center
Sun 09:57:24 AM 40.8153 -103.6036 211° Southwest 416 479 28,500 -2,508 Descending Denver Center
Sun 09:58:25 AM 40.7244 -103.6839 214° Southwest 393 452 26,300 -2,146 Descending Denver Center
Sun 09:59:27 AM 40.6364 -103.7606 213° Southwest 376 433 24,100 -2,146 Descending Denver Center
Sun 10:00:28 AM 40.5483 -103.8364 213° Southwest 376 433 21,900 -2,146 Descending Denver Center
Sun 10:01:30 AM 40.4636 -103.9114 214° Southwest 365 420 19,700 -2,049 Descending Denver Center
Sun 10:02:31 AM 40.3833 -104.0069 222° Southwest 360 414 17,700 -1,967 Descending Denver Center
Sun 10:03:32 AM 40.3456 -104.1311 248° West 368 423 15,700 -1,967 Descending Denver Center
Sun 10:04:33 AM 40.3058 -104.2528 247° West 365 420 13,700 -1,756 Descending Denver Center
Sun 10:05:35 AM 40.2656 -104.3744 247° West 364 419 12,100 -1,268 Descending Denver Center
Sun 10:06:36 AM 40.2233 -104.4994 246° West 351 404 11,100 -541 Descending Denver Center
Sun 10:07:37 AM 40.1869 -104.6083 246° West 331 381 11,000 -639 Descending Denver Center
Sun 10:08:38 AM 40.1131 -104.6686 212° Southwest 310 357 9,800 -1,512 Descending Denver Center
Sun 10:09:40 AM 40.0342 -104.6856 189° South 269 310 7,900 -1,463 Descending Denver Center
Sun 10:10:41 AM 39.9722 -104.6858 180° South 228 262 6,800 -976 Descending Denver Center
Sun 10:11:43 AM 39.9275 -104.6861 180° South 166 191 5,900 -732 Descending Denver Center
Sun 10:12:44 AM 39.8867 -104.6869 181° South 149 171 5,300 -590 Descending Denver Center
Sun 10:14:00 AM 39.8617 -104.6732 180° South  Level Estimated
Sun 10:21:00 AM 39.8617 -104.6732 180° South  Level Estimated
Sun 10:22:00 AM 39.8617 -104.6732 180° South  Level Estimated
Sun 10:23:00 AM 39.8617 -104.6732 180° South  Level Estimated

Login

Don't have an account? Register now (free) for customized features, flight alerts, and more!